Time;durP1;ratioP1;P1;durP2;ratioP2;P2;SDS_P1;SDS_P2;PMS_P1;PMS_P2;Temp;Humidity;BMP_temperature;BMP_pressure;BME280_temperature;BME280_humidity;BME280_pressure;Samples;Min_cycle;Max_cycle;Signal;HPM_P1;HPM_P2
2023/02/09 00:01:27;;;;;;;34.50;19.40;;;;;;;-8.33;67.60;102936.05;108523;1254;65888;-70
2023/02/09 00:03:53;;;;;;;34.20;18.30;;;;;;;-8.30;67.63;102940.29;106169;1254;60408;-70
2023/02/09 00:06:21;;;;;;;35.40;19.90;;;;;;;-8.27;67.59;102939.36;106050;1256;65722;-70
2023/02/09 00:08:49;;;;;;;36.70;19.40;;;;;;;-8.26;67.64;102942.48;107055;1259;59815;-70
2023/02/09 00:13:21;;;;;;;35.90;19.30;;;;;;;-8.24;67.71;102941.19;105858;1257;59677;-69
2023/02/09 00:14:09;;;;;;;34.30;18.20;;;;;;;-8.24;67.63;102940.02;105872;1257;65755;-69
2023/02/09 00:16:36;;;;;;;34.70;18.70;;;;;;;-8.23;67.64;102938.14;105804;1254;60349;-69
2023/02/09 00:19:03;;;;;;;33.90;18.30;;;;;;;-8.23;67.76;102935.25;105931;1255;65420;-70
2023/02/09 00:21:30;;;;;;;33.20;18.30;;;;;;;-8.24;67.71;102935.04;106112;1255;59736;-70
2023/02/09 00:23:57;;;;;;;31.00;17.40;;;;;;;-8.26;67.66;102938.38;106121;1257;59691;-70
2023/02/09 00:26:24;;;;;;;35.00;18.70;;;;;;;-8.30;67.58;102939.23;106015;1253;66155;-70
2023/02/09 00:28:51;;;;;;;34.30;18.10;;;;;;;-8.35;67.58;102938.04;105812;1257;59962;-69
2023/02/09 00:31:19;;;;;;;35.80;17.80;;;;;;;-8.39;67.56;102933.11;105940;1257;64520;-69
2023/02/09 00:33:46;;;;;;;34.20;18.40;;;;;;;-8.41;67.52;102925.67;105906;1254;59659;-70
2023/02/09 00:36:13;;;;;;;32.60;18.40;;;;;;;-8.41;67.57;102916.14;106056;1256;59622;-69
2023/02/09 00:38:40;;;;;;;30.70;16.70;;;;;;;-8.37;67.71;102919.52;106733;1253;64626;-70
2023/02/09 00:41:08;;;;;;;31.90;17.90;;;;;;;-8.33;67.79;102920.50;107098;1259;59943;-69
2023/02/09 00:43:35;;;;;;;34.40;18.00;;;;;;;-8.31;67.84;102919.20;105555;1254;64770;-69
2023/02/09 00:46:03;;;;;;;34.60;17.90;;;;;;;-8.31;67.72;102914.06;105665;1256;59548;-69
2023/02/09 00:48:31;;;;;;;32.10;17.90;;;;;;;-8.33;67.70;102907.52;105775;1257;59492;-70
2023/02/09 00:50:58;;;;;;;32.10;17.50;;;;;;;-8.34;67.73;102905.60;106927;1255;66056;-71
2023/02/09 00:53:27;;;;;;;31.80;17.20;;;;;;;-8.33;67.86;102903.23;106754;1254;59282;-70
2023/02/09 00:55:54;;;;;;;33.90;18.30;;;;;;;-8.33;67.87;102903.06;107767;1254;64909;-70
2023/02/09 00:58:22;;;;;;;34.00;17.90;;;;;;;-8.33;67.89;102898.98;106031;1254;59672;-70
2023/02/09 01:00:49;;;;;;;32.70;18.20;;;;;;;-8.32;67.93;102897.61;106016;1252;59630;-71
2023/02/09 01:03:17;;;;;;;32.60;17.90;;;;;;;-8.35;67.87;102897.05;105569;1257;65752;-69
2023/02/09 01:05:46;;;;;;;35.10;19.30;;;;;;;-8.39;67.82;102891.81;106063;1260;59674;-70
2023/02/09 01:08:12;;;;;;;31.70;17.80;;;;;;;-8.41;67.79;102891.88;105648;1254;65927;-69
2023/02/09 01:10:39;;;;;;;33.60;18.10;;;;;;;-8.44;67.82;102891.09;105654;1257;59526;-70
2023/02/09 01:13:06;;;;;;;33.90;17.90;;;;;;;-8.45;67.74;102886.42;105745;1254;59720;-69
2023/02/09 01:15:34;;;;;;;32.60;17.80;;;;;;;-8.45;67.88;102883.17;105680;1257;65839;-69
2023/02/09 01:18:01;;;;;;;35.50;18.90;;;;;;;-8.42;67.94;102880.55;105329;1259;59823;-70
2023/02/09 01:20:28;;;;;;;35.00;18.80;;;;;;;-8.38;68.07;102877.29;107393;1254;65537;-70
2023/02/09 01:22:57;;;;;;;36.60;19.20;;;;;;;-8.36;68.13;102872.94;105571;1259;59595;-70
2023/02/09 01:25:24;;;;;;;31.70;17.60;;;;;;;-8.35;68.12;102874.83;105390;1257;59615;-70
2023/02/09 01:27:52;;;;;;;32.80;17.90;;;;;;;-8.39;68.00;102871.46;107269;1254;66069;-69
2023/02/09 01:30:19;;;;;;;32.80;18.20;;;;;;;-8.43;67.88;102869.92;105875;1255;59809;-70
2023/02/09 01:32:47;;;;;;;32.20;18.50;;;;;;;-8.48;67.78;102872.12;105727;1256;64647;-69
2023/02/09 01:35:14;;;;;;;29.90;18.10;;;;;;;-8.55;67.74;102870.34;105850;1257;59824;-70
2023/02/09 01:37:41;;;;;;;37.60;18.60;;;;;;;-8.59;67.72;102868.94;105224;1253;59618;-69
2023/02/09 01:40:09;;;;;;;31.80;18.00;;;;;;;-8.63;67.65;102869.30;105325;1261;65867;-69
2023/02/09 01:42:36;;;;;;;33.50;17.90;;;;;;;-8.68;67.68;102872.23;105938;1260;59647;-70
2023/02/09 01:45:34;;;;;;;34.80;18.50;;;;;;;-8.71;67.71;102867.46;105807;1262;65762;-70
2023/02/09 01:48:02;;;;;;;31.50;17.50;;;;;;;-8.74;67.70;102862.59;106032;1260;59670;-70
2023/02/09 01:50:32;;;;;;;29.70;17.10;;;;;;;-8.76;67.72;102859.77;105987;1252;59608;-70
2023/02/09 01:52:59;;;;;;;32.20;17.60;;;;;;;-8.77;67.81;102854.09;106151;1254;65873;-70
2023/02/09 01:55:27;;;;;;;32.00;17.80;;;;;;;-8.78;67.81;102854.05;106034;1254;59604;-70
2023/02/09 01:58:00;;;;;;;34.50;18.90;;;;;;;-8.79;67.84;102851.27;106203;1256;65779;-70
2023/02/09 02:00:27;;;;;;;37.60;20.00;;;;;;;-8.80;67.83;102853.27;105884;1259;59643;-71
2023/02/09 02:03:00;;;;;;;34.50;17.90;;;;;;;-8.81;67.78;102853.24;106133;1257;59618;-70
2023/02/09 02:05:26;;;;;;;32.40;17.90;;;;;;;-8.84;67.74;102853.48;105898;1254;66240;-71
2023/02/09 02:07:59;;;;;;;32.10;17.80;;;;;;;-8.87;67.68;102852.14;106079;1254;59768;-71
2023/02/09 02:10:28;;;;;;;32.90;16.60;;;;;;;-8.93;67.63;102850.71;106650;1257;65362;-70
2023/02/09 02:12:55;;;;;;;33.30;17.50;;;;;;;-8.96;67.74;102852.83;105978;1260;59730;-70
2023/02/09 02:15:28;;;;;;;36.30;19.00;;;;;;;-8.96;67.78;102852.66;106117;1254;59825;-70
2023/02/09 02:18:11;;;;;;;33.90;17.60;;;;;;;-8.98;67.67;102855.81;105867;1260;65718;-71
2023/02/09 02:20:44;;;;;;;33.00;17.30;;;;;;;-9.03;67.60;102854.25;106077;1254;59825;-71
2023/02/09 02:23:21;;;;;;;34.60;18.30;;;;;;;-9.08;67.57;102854.38;106091;1254;65744;-70
2023/02/09 02:26:19;;;;;;;32.10;16.90;;;;;;;-9.15;67.50;102852.89;105917;1255;63586;-70
2023/02/09 02:28:56;;;;;;;38.90;20.00;;;;;;;-9.21;67.55;102848.55;106177;1254;60406;-70
2023/02/09 02:32:07;;;;;;;47.90;24.00;;;;;;;-9.27;67.53;102842.67;106040;1256;66482;-70
2023/02/09 02:34:43;;;;;;;44.40;21.40;;;;;;;-9.32;67.59;102839.58;105818;1254;60482;-71
2023/02/09 02:37:10;;;;;;;49.10;23.70;;;;;;;-9.32;67.73;102836.83;107590;1254;64666;-71
2023/02/09 02:39:41;;;;;;;47.80;26.80;;;;;;;-9.32;67.76;102833.77;106127;1256;60431;-71
2023/02/09 02:45:15;;;;;;;75.90;39.60;;;;;;;-9.34;67.81;102841.05;106060;1254;65595;-70
2023/02/09 02:47:44;;;;;;;57.50;30.20;;;;;;;-9.37;67.68;102841.23;106056;1255;60546;-70
2023/02/09 02:50:13;;;;;;;51.20;26.60;;;;;;;-9.43;67.48;102844.75;106043;1254;67256;-70
2023/02/09 02:52:42;;;;;;;49.00;25.20;;;;;;;-9.51;67.44;102846.98;105953;1254;60297;-70
2023/02/09 02:55:12;;;;;;;49.10;25.60;;;;;;;-9.58;67.35;102847.89;106028;1259;60621;-70
2023/02/09 02:57:42;;;;;;;45.30;24.00;;;;;;;-9.63;67.37;102855.84;106246;1257;66620;-70
2023/02/09 03:00:15;;;;;;;55.80;27.50;;;;;;;-9.67;67.38;102858.76;106186;1254;60421;-70
2023/02/09 03:02:46;;;;;;;54.10;26.30;;;;;;;-9.68;67.54;102862.43;105991;1254;65475;-71
2023/02/09 03:05:13;;;;;;;51.80;27.50;;;;;;;-9.68;67.50;102863.27;106247;1254;60549;-71
2023/02/09 03:07:40;;;;;;;57.80;27.20;;;;;;;-9.70;67.51;102859.13;106123;1257;60540;-70
2023/02/09 03:10:31;;;;;;;55.10;27.60;;;;;;;-9.72;67.56;102862.60;106201;1257;66836;-70
2023/02/09 03:13:06;;;;;;;53.00;26.90;;;;;;;-9.75;67.65;102860.24;105926;1256;60568;-71
2023/02/09 03:15:41;;;;;;;53.90;27.10;;;;;;;-9.77;67.63;102863.40;106405;1257;65538;-70
2023/02/09 03:18:14;;;;;;;54.80;26.80;;;;;;;-9.78;67.68;102863.04;106217;1254;60303;-70
2023/02/09 03:20:57;;;;;;;;;;;;;;;-9.79;67.70;102866.90;106519;1253;60447;-70
2023/02/09 03:23:47;;;;;;;47.30;22.70;;;;;;;-9.84;67.70;102866.55;106011;1257;65729;-70
2023/02/09 03:26:19;;;;;;;51.60;25.50;;;;;;;-9.90;67.63;102866.42;106137;1254;60533;-70
2023/02/09 03:28:47;;;;;;;53.80;27.40;;;;;;;-9.97;67.59;102865.95;106345;1254;65386;-70
2023/02/09 03:31:14;;;;;;;66.00;32.40;;;;;;;-10.01;67.64;102863.41;106201;1254;60530;-70
2023/02/09 03:33:41;;;;;;;62.90;32.90;;;;;;;-10.04;67.60;102868.02;105922;1258;60498;-70
2023/02/09 03:36:12;;;;;;;65.90;34.10;;;;;;;-10.07;67.70;102871.42;106173;1255;66545;-70
2023/02/09 03:38:39;;;;;;;62.30;31.60;;;;;;;-10.08;67.87;102873.98;106297;1256;60509;-70
2023/02/09 03:41:06;;;;;;;59.10;30.40;;;;;;;-10.06;67.98;102874.05;106164;1254;65608;-70
2023/02/09 03:46:19;;;;;;;76.00;37.40;;;;;;;-10.01;67.91;102870.86;105954;1254;60558;-69
2023/02/09 03:48:48;;;;;;;71.90;36.60;;;;;;;-10.03;67.80;102873.16;106181;1254;65878;-70
2023/02/09 03:51:15;;;;;;;72.50;35.30;;;;;;;-10.05;67.77;102874.08;106479;1254;60422;-70
2023/02/09 03:53:42;;;;;;;66.10;33.20;;;;;;;-10.09;67.62;102871.57;106160;1254;65483;-70
2023/02/09 03:56:09;;;;;;;66.40;33.50;;;;;;;-10.12;67.62;102869.71;105949;1254;60542;-70
2023/02/09 03:58:36;;;;;;;65.90;32.90;;;;;;;-10.15;67.62;102866.14;105990;1252;60418;-71
2023/02/09 04:01:06;;;;;;;67.70;33.60;;;;;;;-10.17;67.60;102865.57;106177;1254;65933;-71
2023/02/09 04:03:34;;;;;;;71.00;33.30;;;;;;;-10.17;67.59;102863.68;106378;1256;60471;-70
2023/02/09 04:06:01;;;;;;;74.30;36.70;;;;;;;-10.18;67.62;102860.58;106240;1254;65545;-70
2023/02/09 04:08:32;;;;;;;73.80;38.00;;;;;;;-10.18;67.62;102860.39;106299;1254;60338;-70
2023/02/09 04:10:59;;;;;;;76.60;38.40;;;;;;;-10.19;67.55;102857.13;106174;1253;60459;-70
2023/02/09 04:13:27;;;;;;;85.40;40.90;;;;;;;-10.21;67.50;102854.84;106123;1254;65581;-70
2023/02/09 04:15:54;;;;;;;73.50;37.80;;;;;;;-10.25;67.44;102853.97;106214;1254;60300;-70
2023/02/09 04:18:21;;;;;;;73.20;37.80;;;;;;;-10.30;67.35;102853.08;106021;1254;65611;-70
2023/02/09 04:20:48;;;;;;;79.10;37.80;;;;;;;-10.35;67.29;102855.38;106201;1253;60517;-71
2023/02/09 04:23:15;;;;;;;70.80;36.70;;;;;;;-10.38;67.39;102854.59;107199;1259;60404;-70
2023/02/09 04:25:42;;;;;;;73.40;34.50;;;;;;;-10.38;67.45;102852.34;106154;1254;66529;-70
2023/02/09 04:28:09;;;;;;;72.70;35.90;;;;;;;-10.39;67.45;102856.58;106325;1253;60297;-70
2023/02/09 04:30:36;;;;;;;73.90;36.60;;;;;;;-10.40;67.41;102854.88;105963;1253;65347;-70
2023/02/09 04:33:03;;;;;;;69.80;34.50;;;;;;;-10.38;67.51;102852.89;105993;1257;60463;-70
2023/02/09 04:35:30;;;;;;;73.40;35.10;;;;;;;-10.38;67.40;102846.40;106020;1254;60586;-70
2023/02/09 04:37:57;;;;;;;75.50;36.40;;;;;;;-10.41;67.24;102847.80;105995;1253;66448;-70
2023/02/09 04:40:24;;;;;;;73.20;37.60;;;;;;;-10.46;67.21;102849.96;106076;1256;60510;-70
2023/02/09 04:42:51;;;;;;;75.10;36.00;;;;;;;-10.49;67.16;102846.77;105927;1254;65484;-70
2023/02/09 04:45:18;;;;;;;70.70;35.90;;;;;;;-10.51;67.18;102848.54;105900;1260;60483;-70
2023/02/09 04:47:44;;;;;;;74.40;38.90;;;;;;;-10.53;67.18;102846.55;105737;1254;60562;-70
2023/02/09 04:50:11;;;;;;;77.50;39.30;;;;;;;-10.55;67.17;102846.64;105999;1257;66706;-70
2023/02/09 04:52:39;;;;;;;74.00;37.80;;;;;;;-10.57;67.13;102842.30;105961;1254;60411;-70
2023/02/09 04:55:06;;;;;;;75.60;37.30;;;;;;;-10.61;67.04;102840.93;106013;1254;65596;-70
2023/02/09 05:00:19;;;;;;;84.50;39.80;;;;;;;-10.67;67.00;102836.56;106156;1254;60602;-70
2023/02/09 05:02:46;;;;;;;84.90;40.30;;;;;;;-10.68;67.03;102836.70;106066;1256;66793;-71
2023/02/09 05:05:12;;;;;;;85.50;38.50;;;;;;;-10.68;67.12;102830.73;106202;1254;60450;-71
2023/02/09 05:07:40;;;;;;;83.80;39.30;;;;;;;-10.67;67.16;102828.22;106346;1254;65496;-70
2023/02/09 05:10:07;;;;;;;96.00;46.30;;;;;;;-10.66;67.07;102830.96;106141;1254;60495;-70
2023/02/09 05:12:34;;;;;;;111.30;52.80;;;;;;;-10.65;67.20;102829.69;106124;1254;60454;-70
2023/02/09 05:15:01;;;;;;;108.00;51.20;;;;;;;-10.62;67.34;102827.74;106246;1255;66851;-70
2023/02/09 05:17:31;;;;;;;114.80;55.70;;;;;;;-10.60;67.30;102824.82;106108;1257;61324;-69
2023/02/09 05:19:58;;;;;;;132.50;57.90;;;;;;;-10.60;67.16;102820.06;106073;1254;65397;-70
2023/02/09 05:22:25;;;;;;;148.10;61.60;;;;;;;-10.58;67.17;102818.77;105955;1259;60594;-70
2023/02/09 05:24:52;;;;;;;133.30;57.20;;;;;;;-10.58;67.13;102822.19;106054;1254;60447;-70
2023/02/09 05:27:19;;;;;;;132.20;56.00;;;;;;;-10.59;67.08;102824.67;105882;1254;66908;-70
2023/02/09 05:29:46;;;;;;;128.00;52.20;;;;;;;-10.62;67.01;102824.38;105706;1252;60488;-69
2023/02/09 05:32:13;;;;;;;153.10;60.20;;;;;;;-10.64;66.87;102824.42;105882;1254;65609;-70
2023/02/09 05:34:40;;;;;;;155.40;62.80;;;;;;;-10.66;66.92;102824.70;106046;1257;60315;-69
2023/02/09 05:37:06;;;;;;;177.20;67.90;;;;;;;-10.67;66.92;102825.33;105813;1253;60361;-69
2023/02/09 05:39:34;;;;;;;189.00;71.10;;;;;;;-10.67;66.99;102823.95;106245;1256;66722;-70
2023/02/09 05:42:14;;;;;;;201.10;77.90;;;;;;;-10.67;66.96;102826.17;105943;1259;60459;-69
2023/02/09 05:44:46;;;;;;;204.10;79.70;;;;;;;-10.67;66.95;102823.45;106000;1254;65459;-69
2023/02/09 05:47:14;;;;;;;220.00;91.10;;;;;;;-10.69;66.93;102821.34;106085;1254;60425;-69
2023/02/09 05:49:41;;;;;;;203.60;89.30;;;;;;;-10.70;66.99;102819.92;105880;1253;60474;-70
2023/02/09 05:52:08;;;;;;;189.70;80.70;;;;;;;-10.70;67.07;102819.27;105977;1256;66557;-70
2023/02/09 05:54:36;;;;;;;160.70;73.70;;;;;;;-10.67;67.14;102819.55;105934;1256;60604;-69
2023/02/09 05:57:03;;;;;;;150.70;67.40;;;;;;;-10.62;67.16;102817.36;106016;1256;64482;-69
2023/02/09 05:59:33;;;;;;;140.80;63.90;;;;;;;-10.57;67.35;102816.25;105908;1256;60421;-70
2023/02/09 06:02:00;;;;;;;127.10;56.50;;;;;;;-10.50;67.34;102818.44;106164;1254;60501;-70
2023/02/09 06:04:27;;;;;;;107.90;51.30;;;;;;;-10.43;67.52;102815.55;106106;1256;67046;-69
2023/02/09 06:06:54;;;;;;;107.60;50.00;;;;;;;-10.36;67.57;102814.83;106038;1254;60567;-70
2023/02/09 06:09:21;;;;;;;100.00;48.00;;;;;;;-10.29;67.73;102815.46;105961;1254;65292;-69
2023/02/09 06:11:48;;;;;;;95.30;44.70;;;;;;;-10.21;67.82;102812.39;106167;1257;60402;-69
2023/02/09 06:14:16;;;;;;;99.20;46.60;;;;;;;-10.13;68.00;102812.76;105942;1252;60354;-71
2023/02/09 06:16:49;;;;;;;99.70;46.10;;;;;;;-10.04;68.18;102806.32;105992;1256;66630;-69
2023/02/09 06:19:18;;;;;;;89.70;44.50;;;;;;;-9.95;68.35;102807.77;106019;1254;60443;-69
2023/02/09 06:21:45;;;;;;;88.20;42.50;;;;;;;-9.85;68.42;102801.02;105883;1254;65238;-70
2023/02/09 06:24:12;;;;;;;89.60;42.00;;;;;;;-9.75;68.56;102797.36;106046;1254;61482;-69
2023/02/09 06:26:40;;;;;;;78.10;38.60;;;;;;;-9.64;68.64;102790.67;105990;1252;60354;-69
2023/02/09 06:29:06;;;;;;;89.00;44.30;;;;;;;-9.53;68.82;102787.72;105956;1257;66478;-68
2023/02/09 06:31:34;;;;;;;86.40;44.10;;;;;;;-9.42;68.96;102786.60;105981;1254;60463;-69
2023/02/09 06:34:01;;;;;;;79.20;41.10;;;;;;;-9.33;68.98;102785.46;105972;1254;65155;-71
2023/02/09 06:36:31;;;;;;;73.70;35.60;;;;;;;-9.21;69.16;102786.42;105822;1254;60954;-70
2023/02/09 06:38:57;;;;;;;71.40;37.20;;;;;;;-9.10;69.35;102788.73;105885;1254;60556;-69
2023/02/09 06:41:26;;;;;;;70.90;36.40;;;;;;;-8.98;69.55;102790.77;106142;1254;66743;-69
2023/02/09 06:43:54;;;;;;;76.70;38.20;;;;;;;-8.87;69.61;102788.98;106181;1256;60552;-69
2023/02/09 06:46:20;;;;;;;82.50;40.80;;;;;;;-8.76;69.74;102791.95;105695;1253;64352;-70
2023/02/09 06:48:48;;;;;;;81.80;41.90;;;;;;;-8.65;69.85;102795.64;105918;1254;60512;-69
2023/02/09 06:51:15;;;;;;;89.60;43.80;;;;;;;-8.51;69.93;102793.24;105826;1253;60512;-69
2023/02/09 06:53:42;;;;;;;85.50;41.50;;;;;;;-8.38;70.17;102794.41;105927;1256;66665;-70
2023/02/09 06:56:09;;;;;;;80.80;40.60;;;;;;;-8.24;70.27;102789.95;106041;1256;60536;-70
2023/02/09 06:58:37;;;;;;;75.50;37.30;;;;;;;-8.08;70.43;102789.51;105724;1254;64430;-69
2023/02/09 07:01:05;;;;;;;78.90;39.30;;;;;;;-7.90;70.65;102787.88;106085;1254;60489;-70
2023/02/09 07:03:32;;;;;;;77.30;39.20;;;;;;;-7.74;70.75;102788.77;105937;1254;60306;-70
2023/02/09 07:06:04;;;;;;;74.00;37.70;;;;;;;-7.58;70.87;102785.91;105886;1254;65596;-70
2023/02/09 07:08:31;;;;;;;68.80;37.60;;;;;;;-7.41;70.94;102784.44;105972;1254;60440;-70
2023/02/09 07:11:10;;;;;;;63.10;33.00;;;;;;;-7.24;71.00;102782.59;106058;1254;65275;-71
2023/02/09 07:13:38;;;;;;;72.70;39.30;;;;;;;-7.07;71.17;102781.58;105831;1257;60425;-72
2023/02/09 07:16:06;;;;;;;72.80;39.00;;;;;;;-6.91;71.06;102775.73;105754;1258;61841;-71
2023/02/09 07:18:34;;;;;;;75.10;39.90;;;;;;;-6.77;71.08;102771.55;105649;1259;66576;-70
2023/02/09 07:21:03;;;;;;;76.00;40.80;;;;;;;-6.61;71.10;102767.40;106264;1257;60564;-71
2023/02/09 07:23:30;;;;;;;76.70;40.90;;;;;;;-6.44;71.24;102766.88;105921;1253;63371;-69
2023/02/09 07:26:07;;;;;;;78.20;42.00;;;;;;;-6.28;71.22;102758.92;105922;1256;60450;-69
2023/02/09 07:28:37;;;;;;;76.30;40.30;;;;;;;-6.12;71.22;102756.27;105892;1254;60378;-69
2023/02/09 07:31:06;;;;;;;74.30;40.10;;;;;;;-5.96;71.30;102753.60;106111;1256;66368;-69
2023/02/09 07:33:35;;;;;;;69.60;38.00;;;;;;;-5.82;71.21;102752.26;105872;1254;60474;-69
2023/02/09 07:36:07;;;;;;;71.10;38.60;;;;;;;-5.67;71.24;102749.52;105722;1254;65259;-70
2023/02/09 07:38:35;;;;;;;72.70;38.90;;;;;;;-5.53;71.10;102754.70;105667;1253;60639;-69
2023/02/09 07:41:03;;;;;;;58.40;32.50;;;;;;;-5.40;70.99;102756.38;105914;1256;60486;-71
2023/02/09 07:43:30;;;;;;;185.20;91.40;;;;;;;-5.28;70.85;102751.52;105969;1256;75383;-72
2023/02/09 07:46:02;;;;;;;105.90;52.50;;;;;;;-5.15;70.74;102755.23;105811;1254;60429;-71
2023/02/09 07:48:29;;;;;;;95.00;55.50;;;;;;;-5.00;70.33;102753.02;105982;1254;64544;-67
2023/02/09 07:50:56;;;;;;;60.50;35.50;;;;;;;-4.85;69.96;102751.80;105474;1256;60435;-69
2023/02/09 07:53:23;;;;;;;30.40;19.50;;;;;;;-4.70;69.54;102752.15;105977;1254;60414;-69
2023/02/09 07:55:49;;;;;;;26.00;17.00;;;;;;;-4.56;69.04;102751.91;105865;1253;65871;-69
2023/02/09 07:58:18;;;;;;;49.80;31.00;;;;;;;-4.44;68.56;102746.48;106250;1253;60420;-69
2023/02/09 08:00:46;;;;;;;93.90;56.50;;;;;;;-4.33;68.16;102743.44;105783;1259;65573;-69
2023/02/09 08:03:19;;;;;;;55.10;33.70;;;;;;;-4.23;67.63;102743.82;106024;1253;60517;-68
2023/02/09 08:05:59;;;;;;;38.60;23.80;;;;;;;-4.14;67.26;102747.94;105876;1254;61105;-71
2023/02/09 08:08:26;;;;;;;26.80;16.00;;;;;;;-4.03;67.02;102746.42;105792;1254;66644;-72
2023/02/09 08:10:54;;;;;;;27.80;16.80;;;;;;;-3.94;66.69;102739.71;105978;1254;68809;-68
2023/02/09 08:13:22;;;;;;;24.20;14.50;;;;;;;-3.84;66.65;102740.40;106084;1254;65270;-70
2023/02/09 08:16:00;;;;;;;22.40;13.90;;;;;;;-3.71;66.28;102740.63;106033;1257;60523;-72
2023/02/09 08:18:41;;;;;;;24.00;13.30;;;;;;;-3.56;66.15;102741.23;105695;1254;60297;-79
2023/02/09 08:21:10;;;;;;;28.90;16.70;;;;;;;-3.45;65.82;102739.87;105816;1256;67027;-75
2023/02/09 08:23:36;;;;;;;24.20;12.60;;;;;;;-3.35;65.53;102743.46;106013;1257;60514;-75
2023/02/09 08:26:09;;;;;;;18.90;11.90;;;;;;;-3.24;65.29;102743.98;105748;1254;64400;-69
2023/02/09 08:28:36;;;;;;;17.80;11.80;;;;;;;-3.14;64.91;102745.52;106084;1256;60454;-70
2023/02/09 08:31:23;;;;;;;17.30;11.00;;;;;;;-3.02;64.47;102742.75;106032;1254;60424;-72
2023/02/09 08:33:55;;;;;;;17.90;11.60;;;;;;;-2.90;64.06;102738.27;106534;1253;65125;-71
2023/02/09 08:36:22;;;;;;;19.00;11.10;;;;;;;-2.78;63.55;102740.52;105998;1256;60453;-72
2023/02/09 08:38:50;;;;;;;18.40;11.00;;;;;;;-2.68;63.35;102746.69;105945;1254;64008;-72
2023/02/09 08:41:18;;;;;;;17.70;10.60;;;;;;;-2.56;63.16;102745.80;105814;1254;60418;-72
2023/02/09 08:43:48;;;;;;;16.40;9.30;;;;;;;-2.44;63.00;102742.86;105718;1259;60524;-72
2023/02/09 08:46:16;;;;;;;23.20;10.70;;;;;;;-2.33;62.05;102742.46;106059;1256;66787;-73
2023/02/09 08:48:46;;;;;;;17.60;9.70;;;;;;;-2.28;61.40;102737.86;105819;1254;60492;-72
2023/02/09 08:51:14;;;;;;;17.30;10.10;;;;;;;-2.23;61.23;102735.52;105802;1254;65381;-73
2023/02/09 08:53:42;;;;;;;17.40;9.70;;;;;;;-2.13;60.86;102736.81;105845;1256;60527;-72
2023/02/09 08:56:09;;;;;;;18.00;10.10;;;;;;;-2.05;60.51;102730.17;105810;1253;60398;-72
2023/02/09 08:58:46;;;;;;;16.80;10.10;;;;;;;-1.94;60.37;102730.63;105812;1252;65870;-72
2023/02/09 09:01:39;;;;;;;22.10;13.20;;;;;;;-1.82;59.68;102725.58;106151;1257;60358;-71
2023/02/09 09:04:06;;;;;;;23.20;13.60;;;;;;;-1.75;59.29;102719.23;106236;1253;65290;-73
2023/02/09 09:06:35;;;;;;;48.50;28.20;;;;;;;-1.67;59.04;102716.03;106111;1253;60339;-74
2023/02/09 09:09:02;;;;;;;39.80;23.30;;;;;;;-1.55;59.13;102715.27;105831;1254;60325;-74
2023/02/09 09:11:30;;;;;;;27.50;16.20;;;;;;;-1.41;58.98;102712.61;105935;1259;66864;-75
2023/02/09 09:13:56;;;;;;;29.40;18.20;;;;;;;-1.27;59.00;102711.33;106161;1254;60421;-75
2023/02/09 09:16:24;;;;;;;24.20;14.50;;;;;;;-1.12;58.61;102708.83;106020;1254;65628;-72
2023/02/09 09:18:50;;;;;;;21.50;13.20;;;;;;;-1.02;57.67;102705.27;105919;1254;60401;-71
2023/02/09 09:21:17;;;;;;;19.90;12.20;;;;;;;-0.98;57.29;102701.48;106015;1253;60868;-71
2023/02/09 09:23:44;;;;;;;19.40;11.90;;;;;;;-0.90;57.47;102697.03;105924;1253;66973;-72
2023/02/09 09:26:11;;;;;;;20.60;11.50;;;;;;;-0.79;57.13;102691.02;106114;1252;60516;-71
2023/02/09 09:28:38;;;;;;;20.20;12.00;;;;;;;-0.69;57.04;102687.27;106106;1254;65384;-72
2023/02/09 09:31:07;;;;;;;20.00;11.40;;;;;;;-0.58;57.01;102682.29;106036;1254;60361;-72
2023/02/09 09:33:34;;;;;;;18.30;11.30;;;;;;;-0.42;56.98;102684.59;105963;1253;60461;-71
2023/02/09 09:36:02;;;;;;;17.10;11.00;;;;;;;-0.26;56.33;102676.15;106041;1252;65491;-72
2023/02/09 09:38:29;;;;;;;19.60;11.30;;;;;;;-0.16;55.71;102672.54;106541;1258;60517;-71
2023/02/09 09:40:56;;;;;;;19.90;11.60;;;;;;;-0.07;55.65;102675.31;106108;1259;65507;-70
2023/02/09 09:43:26;;;;;;;19.30;10.80;;;;;;;0.09;55.53;102675.69;106786;1253;60430;-69
2023/02/09 09:45:52;;;;;;;18.50;11.20;;;;;;;0.22;55.33;102670.31;106031;1254;60456;-69
2023/02/09 09:48:27;;;;;;;18.10;11.20;;;;;;;0.39;55.50;102668.92;106141;1254;66596;-70
2023/02/09 09:50:55;;;;;;;18.00;11.30;;;;;;;0.56;55.08;102662.66;105816;1253;60335;-71
2023/02/09 09:53:32;;;;;;;16.70;11.00;;;;;;;0.74;54.73;102658.30;106020;1252;65759;-69
2023/02/09 09:56:01;;;;;;;21.60;12.50;;;;;;;0.95;54.65;102650.27;105892;1259;60651;-69
2023/02/09 09:58:30;;;;;;;18.70;12.40;;;;;;;1.15;54.17;102649.50;106105;1256;60536;-70
2023/02/09 10:00:58;;;;;;;20.40;13.50;;;;;;;1.34;53.95;102645.24;106129;1256;65455;-70
2023/02/09 10:03:25;;;;;;;28.30;17.80;;;;;;;1.54;53.65;102638.55;106126;1254;60462;-68
2023/02/09 10:05:58;;;;;;;54.10;29.00;;;;;;;1.77;53.66;102637.52;105652;1252;65419;-69
2023/02/09 10:08:36;;;;;;;43.60;22.70;;;;;;;2.00;52.48;102630.95;105653;1252;61071;-69
2023/02/09 10:11:12;;;;;;;28.10;17.90;;;;;;;2.11;52.23;102628.07;105895;1253;60552;-70
2023/02/09 10:13:51;;;;;;;26.60;17.20;;;;;;;2.24;51.91;102623.27;105919;1259;66776;-71
2023/02/09 10:16:19;;;;;;;33.40;22.20;;;;;;;2.37;51.70;102615.84;106067;1254;60514;-68
2023/02/09 10:18:51;;;;;;;26.20;16.70;;;;;;;2.52;51.41;102608.91;106196;1254;65371;-69
2023/02/09 10:21:18;;;;;;;25.90;16.20;;;;;;;2.70;51.23;102601.42;106160;1252;60408;-69
2023/02/09 10:23:50;;;;;;;78.00;46.80;;;;;;;2.87;50.43;102599.84;105928;1253;62388;-67
2023/02/09 10:26:18;;;;;;;67.10;37.30;;;;;;;2.95;50.24;102590.34;106091;1254;66718;-67
2023/02/09 10:28:51;;;;;;;64.50;35.10;;;;;;;3.06;49.99;102579.75;105793;1254;205164;-68
2023/02/09 10:31:25;;;;;;;75.30;44.20;;;;;;;3.18;49.57;102581.34;105957;1253;65523;-69
2023/02/09 10:34:18;;;;;;;36.30;21.50;;;;;;;3.26;48.83;102581.91;106027;1253;60457;-69
2023/02/09 10:36:44;;;;;;;46.20;26.50;;;;;;;3.17;47.62;102576.83;105992;1261;60374;-69
2023/02/09 10:39:17;;;;;;;30.10;18.30;;;;;;;3.07;47.98;102567.90;106312;1256;68095;-69
2023/02/09 10:41:46;;;;;;;41.40;23.60;;;;;;;3.15;48.47;102559.95;106181;1256;60557;-69
2023/02/09 10:44:17;;;;;;;47.60;26.60;;;;;;;3.32;48.43;102554.84;106143;1256;65531;-69
2023/02/09 10:46:46;;;;;;;35.10;20.80;;;;;;;3.52;48.50;102553.16;105833;1253;60614;-69
2023/02/09 10:49:38;;;;;;;38.50;21.10;;;;;;;3.71;48.43;102548.66;106001;1254;60591;-69
2023/02/09 10:52:11;;;;;;;47.40;27.70;;;;;;;3.92;47.99;102548.15;106069;1254;65754;-70
2023/02/09 10:54:50;;;;;;;31.10;19.40;;;;;;;4.00;46.61;102544.36;106093;1256;60488;-70
2023/02/09 10:57:21;;;;;;;45.70;25.70;;;;;;;3.92;46.82;102541.17;105922;1258;65688;-69
2023/02/09 10:59:59;;;;;;;41.90;24.70;;;;;;;3.98;47.00;102538.46;105950;1253;60428;-68
2023/02/09 11:02:34;;;;;;;42.90;23.20;;;;;;;4.12;47.13;102534.55;106039;1256;60543;-69
2023/02/09 11:05:03;;;;;;;35.30;21.10;;;;;;;4.31;46.77;102529.84;106021;1252;66681;-70
2023/02/09 11:07:33;;;;;;;31.40;20.40;;;;;;;4.43;45.52;102526.48;105893;1254;60302;-68
2023/02/09 11:10:02;;;;;;;21.70;14.60;;;;;;;4.22;44.20;102521.29;106041;1254;65566;-68
2023/02/09 11:12:29;;;;;;;18.90;13.70;;;;;;;3.97;45.20;102518.61;105592;1259;60470;-68
2023/02/09 11:14:56;;;;;;;22.00;14.40;;;;;;;4.07;46.09;102509.70;105661;1254;60536;-68
2023/02/09 11:17:36;;;;;;;20.20;13.50;;;;;;;4.29;45.30;102508.08;105828;1254;65500;-68
2023/02/09 11:20:30;;;;;;;23.90;13.10;;;;;;;4.31;44.58;102507.70;105347;1259;60335;-68